createdAt,value
2023-02-15T00:01:47.354Z,96.20
2023-02-15T00:04:15.477Z,105.47
2023-02-15T00:06:42.746Z,107.80
2023-02-15T00:09:13.184Z,107.73
2023-02-15T00:11:40.777Z,106.43
2023-02-15T00:14:08.276Z,108.73
2023-02-15T00:16:35.803Z,112.50
2023-02-15T00:19:03.589Z,110.97
2023-02-15T00:21:32.336Z,116.87
2023-02-15T00:24:01.322Z,119.70
2023-02-15T00:26:28.913Z,111.07
2023-02-15T00:28:56.379Z,108.23
2023-02-15T00:31:23.583Z,113.03
2023-02-15T00:33:50.829Z,110.60
2023-02-15T00:36:18.239Z,112.33
2023-02-15T00:38:45.374Z,113.07
2023-02-15T00:41:12.558Z,105.83
2023-02-15T00:43:39.651Z,114.20
2023-02-15T00:46:07.121Z,114.17
2023-02-15T00:48:34.590Z,115.97
2023-02-15T00:51:02.538Z,99.43
2023-02-15T00:53:30.377Z,104.17
2023-02-15T00:55:57.975Z,104.23
2023-02-15T00:58:25.155Z,110.90
2023-02-15T01:00:52.595Z,116.50
2023-02-15T01:03:20.736Z,109.67
2023-02-15T01:05:48.985Z,116.70
2023-02-15T01:08:16.401Z,106.30
2023-02-15T01:10:45.015Z,104.07
2023-02-15T01:13:12.164Z,103.73
2023-02-15T01:15:39.487Z,108.90
2023-02-15T01:18:06.689Z,104.33
2023-02-15T01:20:36.130Z,95.90
2023-02-15T01:23:03.257Z,89.50
2023-02-15T01:25:30.388Z,93.53
2023-02-15T01:27:57.536Z,90.97
2023-02-15T01:30:24.778Z,87.07
2023-02-15T01:32:51.986Z,90.37
2023-02-15T01:35:19.093Z,87.57
2023-02-15T01:37:46.281Z,88.13
2023-02-15T01:40:14.888Z,87.87
2023-02-15T01:42:42.380Z,86.63
2023-02-15T01:45:12.554Z,87.77
2023-02-15T01:47:47.164Z,90.67
2023-02-15T01:50:16.799Z,87.47
2023-02-15T01:52:50.783Z,87.80
2023-02-15T01:55:18.234Z,83.80
2023-02-15T01:57:47.181Z,86.63
2023-02-15T02:00:14.915Z,77.20
2023-02-15T02:02:43.845Z,80.97
2023-02-15T02:05:11.070Z,82.43
2023-02-15T02:07:43.438Z,83.43
2023-02-15T02:10:11.754Z,81.23
2023-02-15T02:12:39.677Z,83.00
2023-02-15T02:15:07.432Z,74.03
2023-02-15T02:17:51.140Z,79.77
2023-02-15T02:20:36.641Z,77.77
2023-02-15T02:23:18.761Z,77.50
2023-02-15T02:25:51.651Z,73.70
2023-02-15T02:28:31.231Z,82.90
2023-02-15T02:31:16.034Z,82.37
2023-02-15T02:33:47.434Z,70.80
2023-02-15T02:36:18.005Z,75.37
2023-02-15T02:38:45.107Z,73.60
2023-02-15T02:41:21.476Z,73.40
2023-02-15T02:44:07.152Z,76.10
2023-02-15T02:46:37.109Z,77.13
2023-02-15T02:49:04.304Z,76.97
2023-02-15T02:51:31.427Z,77.00
2023-02-15T02:54:00.610Z,81.40
2023-02-15T02:56:36.577Z,79.50
2023-02-15T02:59:09.780Z,75.87
2023-02-15T03:01:43.074Z,77.70
2023-02-15T03:04:16.587Z,77.43
2023-02-15T03:06:52.894Z,80.43
2023-02-15T03:09:43.306Z,80.03
2023-02-15T03:12:12.833Z,70.80
2023-02-15T03:14:41.589Z,72.33
2023-02-15T03:17:09.629Z,71.93
2023-02-15T03:19:38.284Z,69.33
2023-02-15T03:22:10.409Z,72.07
2023-02-15T03:24:39.247Z,73.17
2023-02-15T03:27:08.641Z,69.30
2023-02-15T03:29:36.263Z,70.37
2023-02-15T03:32:07.203Z,71.20
2023-02-15T03:34:34.386Z,67.70
2023-02-15T03:37:04.703Z,60.90
2023-02-15T03:39:35.383Z,68.00
2023-02-15T03:42:22.737Z,66.20
2023-02-15T03:44:59.040Z,67.03
2023-02-15T03:47:29.493Z,66.03
2023-02-15T03:49:59.140Z,71.20
2023-02-15T03:52:27.916Z,69.27
2023-02-15T03:54:55.744Z,67.10
2023-02-15T03:57:45.699Z,64.53
2023-02-15T04:00:57.856Z,64.77
2023-02-15T04:03:25.021Z,70.30
2023-02-15T04:05:52.233Z,63.03
2023-02-15T04:08:19.428Z,62.67
2023-02-15T04:10:57.205Z,61.63
2023-02-15T04:13:25.705Z,66.83
2023-02-15T04:16:06.294Z,61.60
2023-02-15T04:18:53.678Z,63.57
2023-02-15T04:21:40.039Z,66.47
2023-02-15T04:24:26.251Z,64.73
2023-02-15T04:26:56.850Z,63.60
2023-02-15T04:29:25.038Z,70.23
2023-02-15T04:31:53.105Z,64.57
2023-02-15T04:34:20.446Z,71.50
2023-02-15T04:36:47.608Z,61.80
2023-02-15T04:39:15.388Z,64.10
2023-02-15T04:41:42.964Z,60.77
2023-02-15T04:44:10.101Z,64.57
2023-02-15T04:46:37.432Z,59.47
2023-02-15T04:49:04.882Z,61.17
2023-02-15T04:51:32.045Z,73.77
2023-02-15T04:53:59.172Z,61.40
2023-02-15T04:56:26.266Z,63.97
2023-02-15T04:58:53.381Z,60.67
2023-02-15T05:01:20.580Z,66.27
2023-02-15T05:03:47.942Z,68.90
2023-02-15T05:06:15.092Z,65.23
2023-02-15T05:08:42.219Z,64.47
2023-02-15T05:11:09.387Z,59.47
2023-02-15T05:13:36.578Z,55.40
2023-02-15T05:16:03.978Z,56.97
2023-02-15T05:18:31.226Z,62.70
2023-02-15T05:20:58.397Z,57.57
2023-02-15T05:23:25.513Z,54.93
2023-02-15T05:26:11.636Z,58.13
2023-02-15T05:28:39.209Z,60.47
2023-02-15T05:31:11.674Z,61.73
2023-02-15T05:33:39.200Z,59.60
2023-02-15T05:36:06.929Z,65.53
2023-02-15T05:38:34.417Z,58.03
2023-02-15T05:41:01.518Z,57.90
2023-02-15T05:43:28.606Z,56.90
2023-02-15T05:45:56.382Z,54.63
2023-02-15T05:48:24.568Z,62.50
2023-02-15T05:51:01.706Z,60.03
2023-02-15T05:53:29.445Z,63.17
2023-02-15T05:56:00.481Z,61.10
2023-02-15T05:58:28.663Z,64.23
2023-02-15T06:00:55.940Z,57.60
2023-02-15T06:03:23.945Z,67.23
2023-02-15T06:05:51.363Z,57.30
2023-02-15T06:08:18.471Z,60.73
2023-02-15T06:10:47.445Z,60.57
2023-02-15T06:13:14.566Z,55.83
2023-02-15T06:15:41.938Z,62.73
2023-02-15T06:18:09.039Z,58.03
2023-02-15T06:20:36.193Z,62.90
2023-02-15T06:23:03.346Z,62.40
2023-02-15T06:25:30.466Z,59.77
2023-02-15T06:27:57.605Z,57.17
2023-02-15T06:30:24.866Z,62.63
2023-02-15T06:32:52.103Z,65.57
2023-02-15T06:35:19.231Z,59.07
2023-02-15T06:37:49.233Z,56.70
2023-02-15T06:40:16.724Z,62.17
2023-02-15T06:42:44.355Z,58.23
2023-02-15T06:45:12.095Z,56.73
2023-02-15T06:47:39.211Z,55.60
2023-02-15T06:50:07.207Z,59.93
2023-02-15T06:52:34.302Z,57.73
2023-02-15T06:55:01.435Z,61.87
2023-02-15T06:57:28.579Z,58.00
2023-02-15T06:59:55.711Z,59.90
2023-02-15T07:02:22.839Z,59.73
2023-02-15T07:04:50.108Z,64.20
2023-02-15T07:07:17.325Z,67.33
2023-02-15T07:09:44.477Z,63.10
2023-02-15T07:12:30.334Z,62.77
2023-02-15T07:14:59.136Z,61.70
2023-02-15T07:17:36.933Z,64.57
2023-02-15T07:20:23.189Z,64.70
2023-02-15T07:22:50.892Z,64.00
2023-02-15T07:25:18.733Z,60.17
2023-02-15T07:27:46.147Z,67.00
2023-02-15T07:30:14.879Z,58.70
2023-02-15T07:33:04.796Z,60.17
2023-02-15T07:35:32.581Z,58.53
2023-02-15T07:37:59.699Z,61.60
2023-02-15T07:40:26.800Z,56.87
2023-02-15T07:42:55.727Z,59.10
2023-02-15T07:45:23.115Z,60.57
2023-02-15T07:47:50.288Z,55.00
2023-02-15T07:50:17.712Z,55.70
2023-02-15T07:52:44.854Z,55.03
2023-02-15T07:55:13.786Z,54.63
2023-02-15T07:57:45.364Z,48.20
2023-02-15T08:00:14.160Z,49.70
2023-02-15T08:02:41.502Z,52.97
2023-02-15T08:05:09.078Z,46.57
2023-02-15T08:07:36.243Z,50.03
2023-02-15T08:10:03.446Z,47.60
2023-02-15T08:12:30.625Z,43.87
2023-02-15T08:14:57.746Z,48.80
2023-02-15T08:17:24.945Z,46.93
2023-02-15T08:19:52.104Z,45.50
2023-02-15T08:22:19.258Z,44.80
2023-02-15T08:24:46.437Z,49.63
2023-02-15T08:27:13.555Z,47.00
2023-02-15T08:29:42.210Z,49.47
2023-02-15T08:32:10.632Z,48.30
2023-02-15T08:34:40.240Z,43.17
2023-02-15T08:37:07.582Z,46.07
2023-02-15T08:39:34.971Z,44.67
2023-02-15T08:42:02.127Z,49.10
2023-02-15T08:44:29.402Z,45.50
2023-02-15T08:46:58.418Z,50.47
2023-02-15T08:49:25.634Z,48.43
2023-02-15T08:51:52.765Z,50.43
2023-02-15T08:54:20.955Z,48.80
2023-02-15T08:56:48.208Z,47.33
2023-02-15T08:59:17.238Z,34.80
2023-02-15T09:01:44.501Z,46.90
2023-02-15T09:04:11.777Z,49.23
2023-02-15T09:06:39.562Z,48.37
2023-02-15T09:09:07.218Z,51.63
2023-02-15T09:11:38.736Z,52.77
2023-02-15T09:14:16.168Z,46.00
2023-02-15T09:16:47.148Z,50.23
2023-02-15T09:19:14.470Z,52.00
2023-02-15T09:21:41.626Z,53.27
2023-02-15T09:24:10.429Z,56.63
2023-02-15T09:26:41.331Z,48.27
2023-02-15T09:29:08.683Z,49.07
2023-02-15T09:31:39.724Z,56.73
2023-02-15T09:34:06.867Z,50.13
2023-02-15T09:36:35.738Z,48.27
2023-02-15T09:39:06.889Z,47.87
2023-02-15T09:41:37.181Z,53.20
2023-02-15T09:44:13.237Z,51.27
2023-02-15T09:46:43.081Z,54.50
2023-02-15T09:49:22.646Z,57.90
2023-02-15T09:52:10.032Z,55.80
2023-02-15T09:54:46.055Z,52.10
2023-02-15T09:57:33.598Z,69.17
2023-02-15T10:00:03.829Z,52.83
2023-02-15T10:02:36.994Z,54.17
2023-02-15T10:05:04.093Z,55.97
2023-02-15T10:07:56.170Z,62.07
2023-02-15T10:10:26.504Z,58.20
2023-02-15T10:13:02.488Z,60.77
2023-02-15T10:15:33.110Z,59.50
2023-02-15T10:18:09.415Z,60.17
2023-02-15T10:20:40.208Z,52.83
2023-02-15T10:23:13.471Z,53.60
2023-02-15T10:25:40.599Z,56.27
2023-02-15T10:28:10.250Z,55.97
2023-02-15T10:30:50.004Z,55.50
2023-02-15T10:33:29.380Z,54.37
2023-02-15T10:35:59.410Z,59.77
2023-02-15T10:38:39.396Z,52.07
2023-02-15T10:41:09.559Z,53.10
2023-02-15T10:43:43.165Z,50.23
2023-02-15T10:46:17.099Z,48.40
2023-02-15T10:49:03.029Z,54.53
2023-02-15T10:51:51.975Z,55.60
2023-02-15T10:54:27.271Z,54.63
2023-02-15T10:57:07.083Z,51.50
2023-02-15T10:59:40.735Z,52.77
2023-02-15T11:02:10.861Z,54.60
2023-02-15T11:04:40.865Z,53.13
2023-02-15T11:07:10.818Z,55.80
2023-02-15T11:09:45.315Z,49.57
2023-02-15T11:12:15.203Z,58.27
2023-02-15T11:14:49.111Z,52.63
2023-02-15T11:17:19.098Z,49.10
2023-02-15T11:20:03.803Z,55.07
2023-02-15T11:22:32.326Z,49.83
2023-02-15T11:25:00.450Z,53.63
2023-02-15T11:27:31.443Z,48.07
2023-02-15T11:30:04.194Z,52.57
2023-02-15T11:32:36.701Z,53.50
2023-02-15T11:35:03.845Z,53.63
2023-02-15T11:37:35.268Z,50.70
2023-02-15T11:40:04.356Z,50.50
2023-02-15T11:42:32.381Z,52.27
2023-02-15T11:45:03.900Z,50.03
2023-02-15T11:47:31.062Z,54.10
2023-02-15T11:49:59.203Z,52.77
2023-02-15T11:52:26.362Z,51.67
2023-02-15T11:54:54.124Z,52.73
2023-02-15T11:57:36.543Z,61.97
2023-02-15T12:00:12.559Z,68.00
2023-02-15T12:02:40.677Z,52.77
2023-02-15T12:05:20.085Z,53.90
2023-02-15T12:07:50.778Z,55.63
2023-02-15T12:10:26.060Z,52.63
2023-02-15T12:13:11.724Z,56.37
2023-02-15T12:15:39.485Z,61.00
2023-02-15T12:18:07.470Z,53.17
2023-02-15T12:20:35.394Z,51.57
2023-02-15T12:23:04.701Z,48.50
2023-02-15T12:25:31.825Z,45.53
2023-02-15T12:27:59.191Z,52.13
2023-02-15T12:30:37.009Z,92.70
2023-02-15T12:33:04.218Z,48.60
2023-02-15T12:35:35.692Z,52.07
2023-02-15T12:38:12.051Z,49.17
2023-02-15T12:40:41.131Z,50.37
2023-02-15T12:43:26.816Z,52.77
2023-02-15T12:45:53.989Z,50.67
2023-02-15T12:48:21.583Z,52.70
2023-02-15T12:50:55.188Z,52.27
2023-02-15T12:53:24.518Z,52.87
2023-02-15T12:55:58.758Z,54.73
2023-02-15T12:58:27.232Z,51.23
2023-02-15T13:01:14.648Z,49.00
2023-02-15T13:03:59.147Z,51.87
2023-02-15T13:06:27.197Z,49.53
2023-02-15T13:08:55.742Z,49.00
2023-02-15T13:11:25.228Z,46.83
2023-02-15T13:13:54.218Z,52.90
2023-02-15T13:16:26.674Z,54.07
2023-02-15T13:18:54.393Z,51.30
2023-02-15T13:21:23.585Z,53.13
2023-02-15T13:23:58.001Z,53.53
2023-02-15T13:26:27.671Z,49.27
2023-02-15T13:28:57.232Z,50.43
2023-02-15T13:31:29.425Z,55.93
2023-02-15T13:33:59.988Z,49.57
2023-02-15T13:36:31.251Z,49.63
2023-02-15T13:39:02.136Z,48.03
2023-02-15T13:41:35.044Z,53.07
2023-02-15T13:44:09.380Z,56.13
2023-02-15T13:46:45.979Z,52.40
2023-02-15T13:49:31.730Z,53.80
2023-02-15T13:51:58.912Z,49.93
2023-02-15T13:54:26.142Z,54.40
2023-02-15T13:57:12.057Z,49.23
2023-02-15T13:59:41.456Z,50.77
2023-02-15T14:02:19.533Z,48.77
2023-02-15T14:04:54.794Z,47.47
2023-02-15T14:07:21.904Z,43.60
2023-02-15T14:09:56.137Z,48.13
2023-02-15T14:12:25.973Z,47.60
2023-02-15T14:14:53.070Z,46.13
2023-02-15T14:17:20.420Z,49.60
2023-02-15T14:19:55.459Z,45.70
2023-02-15T14:22:37.824Z,48.77
2023-02-15T14:25:20.586Z,52.67
2023-02-15T14:27:55.157Z,53.60
2023-02-15T14:30:25.255Z,49.00
2023-02-15T14:32:57.917Z,48.00
2023-02-15T14:35:27.736Z,50.13
2023-02-15T14:38:00.830Z,50.57
2023-02-15T14:40:53.521Z,48.87
2023-02-15T14:43:26.849Z,51.30
2023-02-15T14:45:59.398Z,58.03
2023-02-15T14:48:31.137Z,52.07
2023-02-15T14:50:58.460Z,53.70
2023-02-15T14:53:28.722Z,53.03
2023-02-15T14:56:10.907Z,47.43
2023-02-15T14:58:53.439Z,48.70
2023-02-15T15:01:31.492Z,52.60
2023-02-15T15:04:00.918Z,57.30
2023-02-15T15:06:29.598Z,59.90
2023-02-15T15:09:00.683Z,56.87
2023-02-15T15:11:42.903Z,53.37
2023-02-15T15:14:11.149Z,52.57
2023-02-15T15:16:38.322Z,51.20
2023-02-15T15:19:07.352Z,51.50
2023-02-15T15:22:04.262Z,57.07
2023-02-15T15:24:40.370Z,53.73
2023-02-15T15:27:26.331Z,50.90
2023-02-15T15:29:53.496Z,53.53
2023-02-15T15:32:27.798Z,55.77
2023-02-15T15:35:02.216Z,56.23
2023-02-15T15:37:35.385Z,55.77
2023-02-15T15:40:21.758Z,52.80
2023-02-15T15:42:52.942Z,53.57
2023-02-15T15:45:38.641Z,57.67
2023-02-15T15:48:07.546Z,56.47
2023-02-15T15:50:35.406Z,59.17
2023-02-15T15:53:03.963Z,63.90
2023-02-15T15:55:32.292Z,58.30
2023-02-15T15:58:05.892Z,62.07
2023-02-15T16:00:53.441Z,59.17
2023-02-15T16:03:24.722Z,61.93
2023-02-15T16:05:56.104Z,60.23
2023-02-15T16:08:29.079Z,66.30
2023-02-15T16:10:56.549Z,66.33
2023-02-15T16:13:24.112Z,65.00
2023-02-15T16:15:53.533Z,63.07
2023-02-15T16:18:24.196Z,62.90
2023-02-15T16:20:57.271Z,62.40
2023-02-15T16:23:36.371Z,60.83
2023-02-15T16:26:18.539Z,66.77
2023-02-15T16:28:52.712Z,63.40
2023-02-15T16:31:20.593Z,65.90
2023-02-15T16:33:48.170Z,68.87
2023-02-15T16:36:35.604Z,75.70
2023-02-15T16:39:08.746Z,71.40
2023-02-15T16:41:36.602Z,65.70
2023-02-15T16:44:08.533Z,71.47
2023-02-15T16:46:39.153Z,72.20
2023-02-15T16:49:08.432Z,69.70
2023-02-15T16:51:36.846Z,66.17
2023-02-15T16:54:24.240Z,70.73
2023-02-15T16:56:51.567Z,71.63
2023-02-15T16:59:32.159Z,79.53
2023-02-15T17:01:59.462Z,69.60
2023-02-15T17:04:31.438Z,66.37
2023-02-15T17:07:17.781Z,71.90
2023-02-15T17:09:55.723Z,69.40
2023-02-15T17:12:41.620Z,77.40
2023-02-15T17:15:26.155Z,70.60
2023-02-15T17:17:53.430Z,75.80
2023-02-15T17:20:21.189Z,76.73
2023-02-15T17:22:48.445Z,76.73
2023-02-15T17:25:22.866Z,83.03
2023-02-15T17:27:54.420Z,77.27
2023-02-15T17:30:40.140Z,76.60
2023-02-15T17:33:20.308Z,79.70
2023-02-15T17:36:03.203Z,74.60
2023-02-15T17:38:30.338Z,75.80
2023-02-15T17:40:59.090Z,75.87
2023-02-15T17:43:26.747Z,77.17
2023-02-15T17:45:54.371Z,80.83
2023-02-15T17:48:24.563Z,80.67
2023-02-15T17:50:52.023Z,80.27
2023-02-15T17:53:19.721Z,86.23
2023-02-15T17:55:47.107Z,85.13
2023-02-15T17:58:15.572Z,81.67
2023-02-15T18:01:03.797Z,90.03
2023-02-15T18:03:58.877Z,85.73
2023-02-15T18:06:45.211Z,86.43
2023-02-15T18:09:35.123Z,79.10
2023-02-15T18:12:02.341Z,81.53
2023-02-15T18:14:29.557Z,88.57
2023-02-15T18:16:56.950Z,93.17
2023-02-15T18:19:25.811Z,90.83
2023-02-15T18:21:55.670Z,72.30
2023-02-15T18:24:27.019Z,73.90
2023-02-15T18:26:55.019Z,91.63
2023-02-15T18:29:22.530Z,86.40
2023-02-15T18:31:53.033Z,83.57
2023-02-15T18:34:30.338Z,82.23
2023-02-15T18:36:58.145Z,74.60
2023-02-15T18:39:27.322Z,77.23
2023-02-15T18:41:54.574Z,79.83
2023-02-15T18:44:21.849Z,76.73
2023-02-15T18:46:49.098Z,78.33
2023-02-15T18:49:16.185Z,78.00
2023-02-15T18:51:43.408Z,77.43
2023-02-15T18:54:20.709Z,82.67
2023-02-15T18:56:58.464Z,77.53
2023-02-15T18:59:27.077Z,80.33
2023-02-15T19:01:55.645Z,82.63
2023-02-15T19:04:25.441Z,84.77
2023-02-15T19:06:53.027Z,77.83
2023-02-15T19:09:21.020Z,83.73
2023-02-15T19:11:50.148Z,79.90
2023-02-15T19:14:28.064Z,82.73
2023-02-15T19:16:55.789Z,82.60
2023-02-15T19:19:22.992Z,83.63
2023-02-15T19:21:50.744Z,84.50
2023-02-15T19:24:25.016Z,82.87
2023-02-15T19:26:52.488Z,82.10
2023-02-15T19:29:26.780Z,93.67
2023-02-15T19:31:54.071Z,89.10
2023-02-15T19:34:21.438Z,86.87
2023-02-15T19:36:50.309Z,84.63
2023-02-15T19:39:25.455Z,80.07
2023-02-15T19:41:52.698Z,81.63
2023-02-15T19:44:19.911Z,76.27
2023-02-15T19:46:47.129Z,83.47
2023-02-15T19:49:14.272Z,84.60
2023-02-15T19:51:41.498Z,85.17
2023-02-15T19:54:14.627Z,80.27
2023-02-15T19:56:41.750Z,78.90
2023-02-15T19:59:19.616Z,78.70
2023-02-15T20:01:46.738Z,83.00
2023-02-15T20:04:14.119Z,80.03
2023-02-15T20:06:41.387Z,86.40
2023-02-15T20:09:10.149Z,87.03
2023-02-15T20:11:37.290Z,88.13
2023-02-15T20:14:04.381Z,89.73
2023-02-15T20:16:31.489Z,86.87
2023-02-15T20:18:58.775Z,85.10
2023-02-15T20:21:25.958Z,81.13
2023-02-15T20:23:53.129Z,86.80
2023-02-15T20:26:21.177Z,80.20
2023-02-15T20:28:48.631Z,87.00
2023-02-15T20:31:17.087Z,90.43
2023-02-15T20:33:44.259Z,86.70
2023-02-15T20:36:18.868Z,85.53
2023-02-15T20:38:46.367Z,91.70
2023-02-15T20:41:33.845Z,86.87
2023-02-15T20:44:01.014Z,81.77
2023-02-15T20:46:28.215Z,76.77
2023-02-15T20:48:55.329Z,80.10
2023-02-15T20:51:22.816Z,80.70
2023-02-15T20:53:49.985Z,78.50
2023-02-15T20:56:20.745Z,92.03
2023-02-15T20:58:47.907Z,84.80
2023-02-15T21:01:15.045Z,80.10
2023-02-15T21:03:42.488Z,82.83
2023-02-15T21:06:12.262Z,82.77
2023-02-15T21:08:39.430Z,85.37
2023-02-15T21:11:07.069Z,83.73
2023-02-15T21:13:35.821Z,82.03
2023-02-15T21:16:03.514Z,84.23
2023-02-15T21:18:32.082Z,84.43
2023-02-15T21:21:01.248Z,83.93
2023-02-15T21:23:30.664Z,88.97
2023-02-15T21:25:57.878Z,107.57
2023-02-15T21:28:26.786Z,93.53
2023-02-15T21:30:54.671Z,98.07
2023-02-15T21:33:21.826Z,101.13
2023-02-15T21:35:51.090Z,96.60
2023-02-15T21:38:20.853Z,93.13
2023-02-15T21:40:48.971Z,100.40
2023-02-15T21:43:35.671Z,105.87
2023-02-15T21:46:31.155Z,95.67
2023-02-15T21:48:58.415Z,96.63
2023-02-15T21:51:44.254Z,110.70
2023-02-15T21:54:13.213Z,88.60
2023-02-15T21:56:43.891Z,92.13
2023-02-15T21:59:15.018Z,91.10
2023-02-15T22:01:43.536Z,104.33
2023-02-15T22:04:14.698Z,89.30
2023-02-15T22:06:42.444Z,89.47
2023-02-15T22:09:16.988Z,87.60
2023-02-15T22:11:44.517Z,91.70
2023-02-15T22:14:28.078Z,83.47
2023-02-15T22:16:55.221Z,85.73
2023-02-15T22:19:22.323Z,85.47
2023-02-15T22:21:49.468Z,90.73
2023-02-15T22:24:16.585Z,90.03
2023-02-15T22:26:43.733Z,82.40
2023-02-15T22:29:15.537Z,98.57
2023-02-15T22:31:42.788Z,105.80
2023-02-15T22:34:23.938Z,118.33
2023-02-15T22:36:51.097Z,95.07
2023-02-15T22:39:18.269Z,113.90
2023-02-15T22:41:45.369Z,99.10
2023-02-15T22:44:13.188Z,96.37
2023-02-15T22:46:41.289Z,133.83
2023-02-15T22:49:13.500Z,145.00
2023-02-15T22:51:40.686Z,98.03
2023-02-15T22:54:07.933Z,96.83
2023-02-15T22:56:38.126Z,91.13
2023-02-15T22:59:16.735Z,92.40
2023-02-15T23:01:43.839Z,99.47
2023-02-15T23:04:18.558Z,118.10
2023-02-15T23:06:46.041Z,195.17
2023-02-15T23:09:13.365Z,257.90
2023-02-15T23:11:40.640Z,181.03
2023-02-15T23:14:15.956Z,110.43
2023-02-15T23:16:43.130Z,112.00
2023-02-15T23:19:13.045Z,131.00
2023-02-15T23:21:40.243Z,185.83
2023-02-15T23:24:19.846Z,194.87
2023-02-15T23:26:47.240Z,329.43
2023-02-15T23:29:16.004Z,118.87
2023-02-15T23:31:45.089Z,106.93
2023-02-15T23:34:23.519Z,211.50
2023-02-15T23:36:50.709Z,348.43
2023-02-15T23:39:38.548Z,198.33
2023-02-15T23:42:07.361Z,147.37
2023-02-15T23:44:34.730Z,270.17
2023-02-15T23:47:01.957Z,133.77
2023-02-15T23:49:29.175Z,165.13
2023-02-15T23:51:57.130Z,171.50
2023-02-15T23:54:27.516Z,139.03
2023-02-15T23:57:00.204Z,187.70
2023-02-15T23:59:28.446Z,165.73
